• Join FlightAware (Why Join?)
  • Login
  • US Flag 
12:29AM EDT


 

Airport Tracker/Info


-or-


 

Live Flight TrackerFlight Track Log ✈ EMD21 ✈ 10-Jun-2013 ✈ KSAT - KMLC

Flight Track Log - Related Links

Times and Time Zones

All times are in EDT time to prevent confusion due to time zone crossing. See the EMD21 flight status page for this flight to view local times or setup timezone preferences in your user account.

Time Position Orientation Groundspeed Altitude Reporting Facility
EDT Latitude Longitude Course Direction KTS MPH feet Rate Location/Type
05:53PM 29.5464 -98.4467 North 137 158 1,400  Level Houston Center
05:54PM 29.5636 -98.4278 44° Northeast 138 159 2,200 1,440 Climbing Houston Center
05:55PM 29.5956 -98.4336 351° North 136 157 3,600 1,140 Climbing Houston Center
05:56PM 29.6364 -98.4431 349° North 169 194 4,400 1,140 Climbing Houston Center
05:57PM 29.6856 -98.4336 North 159 183 6,100 1,380 Climbing Houston Center
05:58PM 29.7269 -98.4272 North 151 174 7,400 1,200 Climbing Houston Center
05:59PM 29.8718 -98.4000 North  Level FlightAware Approximate
05:59PM 29.7703 -98.4194 North 147 169 8,600  Level Houston Center
06:00PM 29.8125 -98.4139 North 152 175 9,700 1,080 Climbing Houston Center
06:01PM 29.8575 -98.4053 North 151 174 10,900 1,020 Climbing Houston Center
06:02PM 29.8986 -98.4006 North 150 173 11,900 960 Climbing Houston Center
06:03PM 29.9450 -98.3931 North 156 180 12,900 720 Climbing Houston Center
06:04PM 29.9897 -98.3858 North 163 188 13,500 480 Climbing Houston Center
06:05PM 30.0411 -98.3783 North 171 197 13,900 180 Climbing Houston Center
06:06PM 30.0956 -98.3689 North 195 224 13,900  Level Houston Center
06:07PM 30.1536 -98.3581 North 210 242 13,900 240 Level Houston Center
06:08PM 30.2147 -98.3422 13° North 211 243 14,500 720 Climbing Houston Center
06:09PM 30.2597 -98.3361 North 164 189 15,400 720 Climbing Houston Center
06:10PM 30.3078 -98.3239 12° North 169 194 16,100 660 Climbing Houston Center
06:11PM 30.3503 -98.3178 North 162 186 16,800 360 Climbing Houston Center
06:12PM 30.3947 -98.3044 15° North 164 189 16,900 60 Climbing Houston Center
06:13PM 30.4489 -98.2953 North 186 214 17,000  Climbing Houston Center
06:14PM 30.5058 -98.2833 10° North 202 232 17,000  Level Houston Center
06:15PM 30.5722 -98.2689 11° North 205 236 17,000  Level Houston Center
06:16PM 30.6311 -98.2572 10° North 210 242 17,000  Level Houston Center
06:17PM 30.6878 -98.2456 10° North 206 237 17,000  Level Houston Center
06:18PM 30.7458 -98.2344 North 207 238 17,000  Level Houston Center
06:20PM 30.8033 -98.2208 11° North 208 239 17,000  Level Houston Center
06:21PM 30.8608 -98.2111 North 206 237 17,000  Level Houston Center
06:22PM 30.9172 -98.1958 13° North 206 237 17,000  Level Houston Center
06:23PM 30.9756 -98.1875 North 207 238 17,000  Level Houston Center
06:24PM 31.0408 -98.1706 13° North 205 236 17,000  Level Houston Center
06:25PM 31.0989 -98.1606 North 207 238 17,000  Level Houston Center
06:26PM 31.1561 -98.1458 12° North 207 238 17,000  Level Houston Center
06:27PM 31.2153 -98.1372 North 206 237 17,000  Level Fort Worth Center
06:28PM 31.2656 -98.1061 28° Northeast 201 231 17,000  Level Fort Worth Center
06:29PM 31.3097 -98.0600 42° Northeast 201 231 17,000  Level Fort Worth Center
06:30PM 31.3600 -98.0336 24° Northeast 196 226 17,000  Level Fort Worth Center
06:31PM 31.4103 -98.0000 30° Northeast 202 232 17,000  Level Fort Worth Center
06:32PM 31.4606 -97.9736 24° Northeast 202 232 17,000  Level Fort Worth Center
06:33PM 31.5128 -97.9447 25° Northeast 197 227 17,000  Level Fort Worth Center
06:34PM 31.5567 -97.9131 32° Northeast 197 227 17,000  Level Fort Worth Center
06:35PM 31.6050 -97.8842 27° Northeast 197 227 17,000  Level Fort Worth Center
06:36PM 31.6572 -97.8528 27° Northeast 197 227 17,000  Level Fort Worth Center
06:37PM 31.7053 -97.8211 29° Northeast 197 227 17,000 -60 Level Fort Worth Center
06:38PM 31.7575 -97.7897 27° Northeast 197 227 16,900 300 Descending Fort Worth Center
06:39PM 31.8058 -97.7606 27° Northeast 191 220 17,600 480 Climbing Fort Worth Center
06:40PM 31.8497 -97.7339 27° Northeast 174 200 17,900 540 Climbing Fort Worth Center
06:41PM 31.8914 -97.7094 26° Northeast 174 200 18,700 540 Climbing Fort Worth Center
06:42PM 31.9353 -97.6850 25° Northeast 169 194 19,000 120 Climbing Fort Worth Center
06:43PM 31.9792 -97.6508 33° Northeast 183 211 19,000  Level Fort Worth Center
06:44PM 32.0314 -97.6192 27° Northeast 195 224 19,000 -60 Level Fort Worth Center
06:45PM 32.0794 -97.5900 27° Northeast 200 230 18,900 -60 Descending Fort Worth Center
06:46PM 32.1297 -97.5581 28° Northeast 195 224 18,900  Level Fort Worth Center
06:47PM 32.1800 -97.5264 28° Northeast 201 231 19,000  Climbing Fort Worth Center
06:48PM 32.2300 -97.4969 26° Northeast 195 224 18,900  Descending Fort Worth Center
06:49PM 32.2781 -97.4650 29° Northeast 195 224 19,000  Climbing Fort Worth Center
06:50PM 32.3281 -97.4356 26° Northeast 195 224 19,000  Level Fort Worth Center
06:51PM 32.3761 -97.4036 29° Northeast 195 224 19,000  Level Fort Worth Center
06:52PM 32.4222 -97.3717 30° Northeast 195 224 19,000  Level Fort Worth Center
06:53PM 32.4722 -97.3444 25° Northeast 195 224 19,000  Level Fort Worth Center
06:54PM 32.5222 -97.3125 28° Northeast 195 224 19,000  Level Fort Worth Center
06:55PM 32.5681 -97.2803 31° Northeast 195 224 19,000 -60 Level Fort Worth Center
06:56PM 32.6183 -97.2531 25° Northeast 195 224 18,900 -60 Descending Fort Worth Center
06:57PM 32.6661 -97.2208 30° Northeast 195 224 18,900  Level Fort Worth Center
06:58PM 32.7142 -97.1886 29° Northeast 195 224 19,000  Climbing Fort Worth Center
06:59PM 32.7642 -97.1589 27° Northeast 195 224 19,000  Level Fort Worth Center
07:00PM 32.8122 -97.1267 29° Northeast 195 224 19,000  Level Fort Worth Center
07:01PM 32.8600 -97.0944 30° Northeast 195 224 19,000  Level Fort Worth Center
07:02PM 32.9100 -97.0669 25° Northeast 195 224 19,000  Level Fort Worth Center
07:03PM 32.9581 -97.0347 29° Northeast 195 224 19,000  Level Fort Worth Center
07:04PM 33.0058 -97.0022 30° Northeast 195 224 19,000 -60 Level Fort Worth Center
07:05PM 33.0519 -96.9772 24° Northeast 190 219 18,900  Descending Fort Worth Center
07:06PM 33.0997 -96.9447 30° Northeast 190 219 19,000  Climbing Fort Worth Center
07:07PM 33.1475 -96.9147 28° Northeast 190 219 19,000 -60 Level Fort Worth Center
07:08PM 33.1956 -96.8872 26° Northeast 184 212 18,900  Descending Fort Worth Center
07:09PM 33.2456 -96.8547 29° Northeast 184 212 19,000  Climbing Fort Worth Center
07:10PM 33.2869 -96.8269 29° Northeast 184 212 18,900 -540 Descending Fort Worth Center
07:11PM 33.3453 -96.7892 28° Northeast 202 232 18,000 -480 Descending Fort Worth Center
07:12PM 33.3933 -96.7592 28° Northeast 207 238 18,000 -120 Level Fort Worth Center
07:13PM 33.4472 -96.7239 29° Northeast 207 238 17,800 -420 Descending Fort Worth Center
07:14PM 33.4992 -96.6911 28° Northeast 212 244 17,200 -420 Descending Fort Worth Center
07:15PM 33.5575 -96.6483 31° Northeast 217 250 17,000 -120 Descending Fort Worth Center
07:16PM 33.6075 -96.6228 23° Northeast 217 250 17,000  Level Fort Worth Center
07:17PM 33.6636 -96.5850 29° Northeast 217 250 17,000  Level Fort Worth Center
07:18PM 33.7133 -96.5494 31° Northeast 211 243 17,000  Level Fort Worth Center
07:19PM 33.7611 -96.5214 26° Northeast 206 237 17,000  Level Fort Worth Center
07:20PM 33.8153 -96.4861 28° Northeast 206 237 17,000  Level Fort Worth Center
07:21PM 33.8669 -96.4478 32° Northeast 201 231 17,000  Level Fort Worth Center
07:22PM 33.9211 -96.4222 21° North 201 231 17,000 -420 Level Fort Worth Center
07:23PM 33.9731 -96.3817 33° Northeast 206 237 16,200 -960 Descending Fort Worth Center
07:24PM 34.0311 -96.3408 30° Northeast 217 250 15,100 -900 Descending Fort Worth Center
07:25PM 34.0914 -96.3075 25° Northeast 222 255 14,400 -840 Descending Fort Worth Center
07:26PM 34.1472 -96.2767 25° Northeast 222 255 13,500 -900 Descending Fort Worth Center
07:27PM 34.2014 -96.2433 27° Northeast 216 249 12,700 -960 Descending Fort Worth Center
07:28PM 34.2553 -96.2050 30° Northeast 216 249 11,600 -1,020 Descending Fort Worth Center
07:29PM 34.3133 -96.1639 30° Northeast 222 255 10,700 -900 Descending Fort Worth Center
07:30PM 34.3692 -96.1278 28° Northeast 222 255 9,900 -780 Descending Fort Worth Center
07:31PM 34.4253 -96.0917 28° Northeast 222 255 9,200 -720 Descending Fort Worth Center
07:32PM 34.4853 -96.0506 29° Northeast 222 255 8,500 -720 Descending Fort Worth Center
07:33PM 34.5433 -96.0144 27° Northeast 222 255 7,800 -720 Descending Fort Worth Center